createdAt,value
2023-02-27T00:00:19.059Z,27.8
2023-02-27T00:05:16.148Z,27.7
2023-02-27T00:10:19.124Z,27.6
2023-02-27T00:15:16.130Z,27.5
2023-02-27T00:20:19.217Z,27.4
2023-02-27T00:25:19.091Z,27.6
2023-02-27T00:30:16.629Z,27.5
2023-02-27T00:35:19.162Z,27.4
2023-02-27T00:40:19.093Z,27.3
2023-02-27T00:45:16.163Z,27.2
2023-02-27T00:50:16.175Z,27.1
2023-02-27T00:55:19.102Z,27.1
2023-02-27T01:00:16.091Z,27.4
2023-02-27T01:05:16.816Z,27.3
2023-02-27T01:10:16.178Z,27.3
2023-02-27T01:15:19.105Z,27.1
2023-02-27T01:20:19.158Z,27.0
2023-02-27T01:25:19.138Z,26.9
2023-02-27T01:30:19.158Z,26.8
2023-02-27T01:35:19.792Z,26.7
2023-02-27T01:40:16.072Z,26.6
2023-02-27T01:45:16.186Z,26.7
2023-02-27T01:50:19.176Z,26.3
2023-02-27T01:55:16.183Z,26.0
2023-02-27T02:00:16.299Z,25.7
2023-02-27T02:05:19.199Z,25.3
2023-02-27T02:10:19.803Z,24.9
2023-02-27T02:15:19.172Z,24.8
2023-02-27T02:20:16.044Z,24.4
2023-02-27T02:25:16.216Z,23.9
2023-02-27T02:30:19.237Z,23.6
2023-02-27T02:35:16.193Z,23.7
2023-02-27T02:40:19.217Z,23.4
2023-02-27T02:45:16.836Z,23.2
2023-02-27T02:50:19.172Z,22.7
2023-02-27T02:55:16.104Z,22.2
2023-02-27T03:00:19.255Z,21.6
2023-02-27T03:05:19.233Z,20.9
2023-02-27T03:10:16.293Z,20.2
2023-02-27T03:15:19.886Z,19.8
2023-02-27T03:20:16.305Z,19.5
2023-02-27T03:25:19.204Z,19.3
2023-02-27T03:30:16.265Z,19.1
2023-02-27T03:35:19.249Z,19.0
2023-02-27T03:40:19.232Z,19.2
2023-02-27T03:45:19.252Z,19.2
2023-02-27T03:50:19.806Z,19.2
2023-02-27T03:55:19.231Z,19.2
2023-02-27T04:00:16.297Z,19.3
2023-02-27T04:05:19.314Z,19.4
2023-02-27T04:10:16.307Z,19.4
2023-02-27T04:15:19.464Z,19.6
2023-02-27T04:20:19.228Z,19.7
2023-02-27T04:25:19.790Z,20.2
2023-02-27T04:30:19.223Z,20.4
2023-02-27T04:35:16.329Z,20.5
2023-02-27T04:40:19.252Z,20.6
2023-02-27T04:45:19.290Z,20.8
2023-02-27T04:50:19.286Z,21.0
2023-02-27T04:55:16.349Z,21.2
2023-02-27T05:00:16.059Z,21.8
2023-02-27T05:05:15.469Z,22.0
2023-02-27T05:10:15.434Z,22.1
2023-02-27T05:15:18.553Z,22.3
2023-02-27T05:20:18.765Z,22.5
2023-02-27T05:25:18.559Z,22.4
2023-02-27T05:30:19.166Z,22.5
2023-02-27T05:35:15.582Z,22.5
2023-02-27T05:40:18.552Z,22.6
2023-02-27T05:45:15.404Z,22.7
2023-02-27T05:50:15.449Z,22.7
2023-02-27T05:55:18.980Z,22.4
2023-02-27T06:00:15.637Z,22.5
2023-02-27T06:05:19.196Z,22.4
2023-02-27T06:10:18.555Z,22.4
2023-02-27T06:15:18.527Z,22.4
2023-02-27T06:20:15.596Z,22.5
2023-02-27T06:25:18.566Z,22.5
2023-02-27T06:30:15.449Z,22.3
2023-02-27T06:35:15.660Z,22.3
2023-02-27T06:40:19.183Z,22.4
2023-02-27T06:45:18.567Z,22.4
2023-02-27T06:50:18.538Z,22.4
2023-02-27T06:55:15.656Z,22.4
2023-02-27T07:00:18.616Z,22.5
2023-02-27T07:05:18.602Z,22.5
2023-02-27T07:10:18.596Z,22.3
2023-02-27T07:15:19.224Z,22.4
2023-02-27T07:20:18.668Z,22.5
2023-02-27T07:25:18.597Z,22.6
2023-02-27T07:30:18.595Z,22.4
2023-02-27T07:35:15.647Z,22.5
2023-02-27T07:40:15.660Z,22.6
2023-02-27T07:45:15.686Z,22.3
2023-02-27T07:50:15.999Z,22.3
2023-02-27T07:55:15.518Z,22.3
2023-02-27T08:00:18.626Z,22.3
2023-02-27T08:05:18.630Z,22.3
2023-02-27T08:10:18.606Z,22.0
2023-02-27T08:15:15.697Z,22.0
2023-02-27T08:20:15.734Z,21.9
2023-02-27T08:25:19.291Z,21.9
2023-02-27T08:30:15.699Z,21.8
2023-02-27T08:35:18.640Z,21.7
2023-02-27T08:40:18.675Z,21.7
2023-02-27T08:45:18.651Z,21.7
2023-02-27T08:50:18.646Z,21.6
2023-02-27T08:55:15.682Z,21.6
2023-02-27T09:00:19.393Z,21.6
2023-02-27T09:05:18.746Z,21.5
2023-02-27T09:10:15.681Z,21.5
2023-02-27T09:15:18.708Z,21.4
2023-02-27T09:20:18.689Z,21.4
2023-02-27T09:25:15.710Z,21.3
2023-02-27T09:30:18.823Z,21.3
2023-02-27T09:35:19.708Z,21.2
2023-02-27T09:40:18.761Z,21.2
2023-02-27T09:45:15.876Z,21.2
2023-02-27T09:50:15.730Z,21.2
2023-02-27T09:55:18.775Z,21.2
2023-02-27T10:00:18.687Z,21.2
2023-02-27T10:05:18.684Z,21.2
2023-02-27T10:10:16.265Z,21.1
2023-02-27T10:15:15.800Z,21.1
2023-02-27T10:20:18.731Z,21.0
2023-02-27T10:25:30.841Z,20.7
2023-02-27T10:30:28.503Z,20.6
2023-02-27T10:35:18.733Z,20.6
2023-02-27T10:40:15.803Z,20.6
2023-02-27T10:45:19.357Z,20.5
2023-02-27T10:50:18.767Z,20.5
2023-02-27T10:55:18.732Z,20.5
2023-02-27T11:00:15.778Z,20.5
2023-02-27T11:05:18.780Z,20.5
2023-02-27T11:10:18.824Z,20.4
2023-02-27T11:15:18.773Z,20.5
2023-02-27T11:20:19.274Z,20.4
2023-02-27T11:25:15.782Z,20.4
2023-02-27T11:30:18.824Z,20.4
2023-02-27T11:35:18.801Z,20.1
2023-02-27T11:40:18.781Z,20.0
2023-02-27T11:45:15.668Z,20.1
2023-02-27T11:50:15.856Z,20.1
2023-02-27T11:55:16.513Z,19.9
2023-02-27T12:00:18.792Z,19.9
2023-02-27T12:05:18.784Z,20.0
2023-02-27T12:10:18.764Z,20.0
2023-02-27T12:15:18.812Z,20.0
2023-02-27T12:20:15.840Z,20.1
2023-02-27T12:25:19.517Z,20.2
2023-02-27T12:30:15.856Z,20.3
2023-02-27T12:35:15.900Z,20.4
2023-02-27T12:40:18.923Z,20.4
2023-02-27T12:45:15.697Z,20.4
2023-02-27T12:50:15.913Z,20.2
2023-02-27T12:55:18.816Z,20.2
2023-02-27T13:00:19.450Z,19.9
2023-02-27T13:05:15.690Z,20.0
2023-02-27T13:10:16.120Z,20.1
2023-02-27T13:15:18.875Z,19.9
2023-02-27T13:20:15.841Z,19.5
2023-02-27T13:25:18.913Z,19.6
2023-02-27T13:30:15.855Z,19.3
2023-02-27T13:35:19.538Z,19.4
2023-02-27T13:40:18.836Z,19.5
2023-02-27T13:45:18.820Z,19.7
2023-02-27T13:50:18.873Z,19.4
2023-02-27T13:55:18.829Z,19.3
2023-02-27T14:00:18.843Z,18.9
2023-02-27T14:05:18.853Z,19.0
2023-02-27T14:10:19.378Z,18.5
2023-02-27T14:15:15.906Z,18.8
2023-02-27T14:20:15.927Z,19.0
2023-02-27T14:25:15.895Z,17.8
2023-02-27T14:30:18.881Z,19.3
2023-02-27T14:35:18.893Z,18.9
2023-02-27T14:40:29.286Z,17.6
2023-02-27T14:45:20.737Z,17.7
2023-02-27T14:50:18.883Z,18.1
2023-02-27T14:55:18.857Z,18.4
2023-02-27T15:00:15.931Z,18.3
2023-02-27T15:05:18.942Z,18.3
2023-02-27T15:10:18.922Z,17.3
2023-02-27T15:15:19.005Z,18.2
2023-02-27T15:20:19.460Z,17.9
2023-02-27T15:25:18.897Z,18.1
2023-02-27T15:30:15.960Z,18.1
2023-02-27T15:35:16.003Z,18.1
2023-02-27T15:40:15.940Z,18.1
2023-02-27T15:45:18.925Z,18.0
2023-02-27T15:50:19.119Z,18.0
2023-02-27T15:55:19.587Z,18.7
2023-02-27T16:00:15.941Z,17.8
2023-02-27T16:05:18.912Z,18.0
2023-02-27T16:10:16.005Z,18.8
2023-02-27T16:15:18.993Z,17.8
2023-02-27T16:20:19.004Z,18.6
2023-02-27T16:25:18.959Z,18.1
2023-02-27T16:30:19.557Z,18.5
2023-02-27T16:35:18.946Z,17.8
2023-02-27T16:40:16.130Z,20.1
2023-02-27T16:45:18.941Z,18.7
2023-02-27T16:50:18.921Z,18.6
2023-02-27T16:55:18.947Z,18.5
2023-02-27T17:00:16.001Z,18.3
2023-02-27T17:05:19.610Z,19.0
2023-02-27T17:10:18.989Z,19.5
2023-02-27T17:15:16.008Z,18.8
2023-02-27T17:20:19.087Z,18.1
2023-02-27T17:25:19.014Z,19.5
2023-02-27T17:30:16.007Z,18.1
2023-02-27T17:35:19.001Z,19.8
2023-02-27T17:40:19.610Z,19.9
2023-02-27T17:45:19.026Z,20.7
2023-02-27T17:50:18.973Z,20.0
2023-02-27T17:55:19.039Z,21.5
2023-02-27T18:00:16.014Z,20.2
2023-02-27T18:05:18.990Z,19.7
2023-02-27T18:10:19.021Z,20.2
2023-02-27T18:15:19.743Z,20.3
2023-02-27T18:20:16.072Z,21.0
2023-02-27T18:25:16.839Z,20.6
2023-02-27T18:30:16.070Z,20.7
2023-02-27T18:35:16.078Z,20.9
2023-02-27T18:40:16.059Z,20.8
2023-02-27T18:45:19.032Z,20.7
2023-02-27T18:50:19.651Z,20.4
2023-02-27T18:55:16.100Z,20.7
2023-02-27T19:00:19.075Z,20.2
2023-02-27T19:05:16.053Z,20.6
2023-02-27T19:10:19.143Z,21.8
2023-02-27T19:15:19.016Z,20.9
2023-02-27T19:20:19.058Z,20.9
2023-02-27T19:25:16.659Z,22.0
2023-02-27T19:30:16.142Z,21.3
2023-02-27T19:35:19.115Z,21.5
2023-02-27T19:40:19.079Z,22.2
2023-02-27T19:45:19.044Z,21.8
2023-02-27T19:50:16.073Z,21.1
2023-02-27T19:55:19.649Z,21.0
2023-02-27T20:00:19.261Z,20.9
2023-02-27T20:05:19.135Z,21.3
2023-02-27T20:10:19.031Z,21.2
2023-02-27T20:15:16.172Z,21.0
2023-02-27T20:20:15.934Z,21.8
2023-02-27T20:25:19.103Z,21.1
2023-02-27T20:30:19.738Z,20.9
2023-02-27T20:35:19.170Z,21.0
2023-02-27T20:40:16.143Z,21.5
2023-02-27T20:45:19.125Z,21.5
2023-02-27T20:50:19.075Z,21.3
2023-02-27T20:55:19.131Z,21.4
2023-02-27T21:00:15.998Z,21.9
2023-02-27T21:05:19.768Z,21.8
2023-02-27T21:10:19.153Z,21.7
2023-02-27T21:15:16.172Z,21.5
2023-02-27T21:20:16.157Z,21.2
2023-02-27T21:25:19.114Z,21.6
2023-02-27T21:30:19.133Z,21.9
2023-02-27T21:35:16.195Z,21.6
2023-02-27T21:40:16.832Z,21.4
2023-02-27T21:45:19.132Z,21.6
2023-02-27T21:50:19.152Z,21.5
2023-02-27T21:55:16.215Z,21.4
2023-02-27T22:00:19.159Z,21.4
2023-02-27T22:05:19.146Z,21.3
2023-02-27T22:10:16.140Z,21.2
2023-02-27T22:15:19.786Z,21.0
2023-02-27T22:20:16.178Z,21.0
2023-02-27T22:25:19.217Z,21.0
2023-02-27T22:30:16.253Z,21.0
2023-02-27T22:35:19.173Z,21.0
2023-02-27T22:40:19.176Z,21.0
2023-02-27T22:45:16.182Z,21.0
2023-02-27T22:50:19.928Z,21.0
2023-02-27T22:55:19.145Z,21.0
2023-02-27T23:00:16.194Z,21.4
2023-02-27T23:05:16.196Z,21.4
2023-02-27T23:10:19.370Z,21.4
2023-02-27T23:15:19.289Z,21.4
2023-02-27T23:20:16.217Z,21.3
2023-02-27T23:25:19.860Z,21.3
2023-02-27T23:30:19.234Z,21.3
2023-02-27T23:35:16.311Z,21.3
2023-02-27T23:40:19.202Z,21.3
2023-02-27T23:45:16.250Z,21.3
2023-02-27T23:50:19.253Z,21.7
2023-02-27T23:55:19.241Z,21.7
